createdAt,value
2022-08-24T00:03:41.335Z,1.40
2022-08-24T00:08:33.788Z,1.65
2022-08-24T00:13:26.565Z,1.70
2022-08-24T00:18:21.096Z,2.83
2022-08-24T00:23:12.752Z,1.73
2022-08-24T00:28:05.630Z,1.05
2022-08-24T00:32:57.553Z,2.78
2022-08-24T00:37:51.103Z,2.10
2022-08-24T00:42:43.052Z,1.80
2022-08-24T00:47:51.888Z,3.05
2022-08-24T00:52:50.918Z,2.20
2022-08-24T00:57:46.952Z,2.22
2022-08-24T01:02:43.796Z,3.45
2022-08-24T01:07:37.394Z,4.75
2022-08-24T01:12:33.354Z,2.35
2022-08-24T01:17:44.152Z,1.88
2022-08-24T01:23:05.566Z,3.60
2022-08-24T01:28:04.005Z,3.25
2022-08-24T01:33:00.559Z,5.22
2022-08-24T01:37:54.532Z,3.03
2022-08-24T01:42:51.762Z,2.72
2022-08-24T01:47:43.524Z,2.97
2022-08-24T01:53:03.519Z,3.05
2022-08-24T01:57:47.631Z,2.88
2022-08-24T02:02:40.121Z,4.70
2022-08-24T02:07:33.004Z,3.00
2022-08-24T02:12:24.972Z,2.97
2022-08-24T02:17:18.277Z,2.85
2022-08-24T02:22:10.299Z,2.92
2022-08-24T02:27:02.556Z,3.40
2022-08-24T02:31:54.328Z,5.22
2022-08-24T02:36:46.874Z,3.35
2022-08-24T02:41:38.550Z,3.08
2022-08-24T02:46:31.020Z,4.97
2022-08-24T02:51:26.749Z,5.97
2022-08-24T02:56:21.419Z,5.53
2022-08-24T03:01:17.629Z,3.40
2022-08-24T03:06:14.182Z,3.45
2022-08-24T03:11:08.337Z,4.38
2022-08-24T03:16:00.251Z,4.70
2022-08-24T03:20:52.733Z,3.72
2022-08-24T03:25:44.857Z,4.55
2022-08-24T03:30:36.625Z,2.33
2022-08-24T03:35:28.643Z,3.95
2022-08-24T03:40:22.535Z,3.22
2022-08-24T03:45:16.000Z,4.45
2022-08-24T03:50:10.784Z,6.30
2022-08-24T03:55:05.999Z,6.22
2022-08-24T03:59:57.693Z,4.57
2022-08-24T04:04:49.488Z,3.63
2022-08-24T04:09:41.349Z,2.08
2022-08-24T04:14:34.401Z,4.72
2022-08-24T04:19:27.597Z,4.93
2022-08-24T04:24:20.502Z,2.63
2022-08-24T04:29:13.914Z,3.15
2022-08-24T04:34:06.922Z,6.20
2022-08-24T04:38:58.715Z,3.33
2022-08-24T04:43:50.933Z,3.13
2022-08-24T04:48:45.137Z,2.78
2022-08-24T04:53:37.637Z,3.17
2022-08-24T04:58:30.768Z,2.40
2022-08-24T05:03:23.277Z,3.72
2022-08-24T05:08:15.977Z,5.38
2022-08-24T05:13:08.658Z,2.50
2022-08-24T05:18:01.093Z,2.88
2022-08-24T05:22:55.931Z,2.50
2022-08-24T05:27:48.761Z,1.83
2022-08-24T05:32:40.650Z,2.83
2022-08-24T05:37:35.957Z,4.22
2022-08-24T05:42:27.618Z,2.70
2022-08-24T05:47:19.477Z,3.35
2022-08-24T05:52:11.138Z,1.83
2022-08-24T05:57:05.151Z,2.22
2022-08-24T06:01:57.190Z,3.05
2022-08-24T06:06:50.096Z,2.58
2022-08-24T06:11:42.270Z,3.00
2022-08-24T06:16:39.900Z,2.50
2022-08-24T06:26:43.050Z,1.58
2022-08-24T06:31:41.808Z,4.80
2022-08-24T06:36:33.872Z,2.33
2022-08-24T06:41:26.269Z,2.50
2022-08-24T06:46:22.085Z,1.00
2022-08-24T06:51:18.429Z,1.02
2022-08-24T06:56:10.562Z,0.57
2022-08-24T07:01:15.825Z,0.20
2022-08-24T07:06:08.639Z,0.40
2022-08-24T07:11:00.425Z,0.57
2022-08-24T07:15:53.395Z,0.47
2022-08-24T07:20:45.542Z,0.50
2022-08-24T07:25:37.249Z,1.17
2022-08-24T07:30:29.058Z,0.30
2022-08-24T07:35:21.185Z,0.15
2022-08-24T07:40:12.994Z,2.10
2022-08-24T07:45:05.357Z,0.25
2022-08-24T07:49:57.355Z,0.63
2022-08-24T07:54:49.781Z,1.80
2022-08-24T07:59:41.913Z,2.65
2022-08-24T08:04:34.108Z,1.45
2022-08-24T08:09:25.825Z,0.20
2022-08-24T08:14:17.598Z,0.05
2022-08-24T08:19:10.162Z,0.20
2022-08-24T08:24:20.483Z,0.32
2022-08-24T08:29:13.807Z,1.15
2022-08-24T08:34:06.402Z,0.22
2022-08-24T08:38:59.004Z,0.50
2022-08-24T08:44:06.378Z,0.43
2022-08-24T08:49:19.354Z,0.20
2022-08-24T08:54:32.680Z,0.30
2022-08-24T08:59:52.307Z,1.42
2022-08-24T09:05:06.751Z,1.55
2022-08-24T09:10:20.151Z,0.90
2022-08-24T09:15:29.349Z,2.65
2022-08-24T09:20:27.201Z,1.55
2022-08-24T09:25:40.245Z,0.77
2022-08-24T09:30:54.627Z,0.93
2022-08-24T09:36:01.001Z,0.65
2022-08-24T09:41:14.371Z,0.28
2022-08-24T09:46:06.096Z,0.52
2022-08-24T09:51:16.669Z,0.68
2022-08-24T09:56:29.019Z,0.85
2022-08-24T10:01:49.312Z,0.57
2022-08-24T10:07:07.065Z,0.45
2022-08-24T10:12:11.593Z,1.30
2022-08-24T10:17:06.367Z,2.85
2022-08-24T10:22:06.987Z,0.63
2022-08-24T10:27:31.277Z,1.17
2022-08-24T10:32:47.673Z,0.40
2022-08-24T10:38:18.320Z,0.40
2022-08-24T10:43:36.237Z,0.43
2022-08-24T10:48:33.499Z,1.38
2022-08-24T10:53:31.005Z,1.35
2022-08-24T10:58:44.091Z,0.40
2022-08-24T11:03:52.749Z,0.55
2022-08-24T11:08:58.401Z,0.77
2022-08-24T11:14:00.474Z,1.33
2022-08-24T11:18:55.755Z,0.10
2022-08-24T11:23:48.096Z,0.30
2022-08-24T11:28:45.405Z,0.90
2022-08-24T11:33:50.050Z,0.70
2022-08-24T11:38:45.892Z,0.30
2022-08-24T11:44:07.646Z,0.70
2022-08-24T11:49:24.830Z,0.95
2022-08-24T11:54:25.315Z,2.78
2022-08-24T11:59:49.704Z,0.43
2022-08-24T12:04:49.320Z,1.40
2022-08-24T12:10:15.197Z,2.78
2022-08-24T12:15:32.872Z,3.20
2022-08-24T12:20:32.047Z,0.93
2022-08-24T12:25:45.820Z,1.38
2022-08-24T12:30:37.541Z,0.77
2022-08-24T12:35:45.886Z,1.83
2022-08-24T12:40:48.159Z,1.27
2022-08-24T12:45:41.126Z,1.50
2022-08-24T12:51:04.328Z,0.45
2022-08-24T12:56:18.552Z,0.20
2022-08-24T13:01:11.746Z,0.88
2022-08-24T13:06:27.889Z,0.32
2022-08-24T13:11:32.014Z,0.25
2022-08-24T13:16:50.881Z,1.67
2022-08-24T13:21:50.804Z,0.95
2022-08-24T13:26:42.497Z,0.75
2022-08-24T13:31:38.613Z,0.77
2022-08-24T13:36:53.534Z,0.10
2022-08-24T13:41:55.639Z,0.63
2022-08-24T13:47:12.913Z,0.80
2022-08-24T13:52:16.311Z,0.30
2022-08-24T13:57:14.159Z,1.88
2022-08-24T14:02:25.913Z,0.30
2022-08-24T14:07:23.773Z,0.30
2022-08-24T14:12:30.706Z,2.45
2022-08-24T14:17:54.099Z,0.68
2022-08-24T14:23:18.383Z,1.63
2022-08-24T14:28:32.871Z,0.35
2022-08-24T14:33:35.433Z,1.20
2022-08-24T14:38:56.461Z,1.75
2022-08-24T14:44:00.186Z,0.50
2022-08-24T14:49:06.910Z,0.60
2022-08-24T14:54:19.822Z,0.63
2022-08-24T14:59:29.865Z,1.17
2022-08-24T15:04:37.244Z,2.40
2022-08-24T15:09:38.737Z,0.73
2022-08-24T15:14:55.374Z,0.63
2022-08-24T15:19:57.820Z,1.00
2022-08-24T15:25:05.394Z,1.95
2022-08-24T15:29:59.658Z,2.17
2022-08-24T15:34:58.314Z,0.40
2022-08-24T15:39:50.079Z,1.88
2022-08-24T15:44:45.274Z,0.57
2022-08-24T15:50:08.602Z,0.98
2022-08-24T15:55:03.426Z,1.10
2022-08-24T16:00:07.904Z,0.25
2022-08-24T16:05:24.275Z,0.57
2022-08-24T16:10:29.926Z,1.48
2022-08-24T16:15:21.670Z,0.40
2022-08-24T16:20:34.214Z,0.30
2022-08-24T16:25:28.837Z,2.00
2022-08-24T16:30:35.867Z,0.70
2022-08-24T16:35:27.741Z,0.47
2022-08-24T16:40:19.668Z,0.60
2022-08-24T16:45:15.155Z,0.22
2022-08-24T16:50:07.257Z,0.35
2022-08-24T16:55:00.860Z,0.28
2022-08-24T16:59:53.054Z,0.20
2022-08-24T17:04:45.657Z,0.40
2022-08-24T17:09:39.321Z,0.30
2022-08-24T17:14:31.247Z,0.30
2022-08-24T17:19:22.926Z,0.40
2022-08-24T17:24:17.851Z,1.17
2022-08-24T17:29:10.465Z,0.25
2022-08-24T17:34:08.321Z,0.77
2022-08-24T17:39:02.109Z,0.30
2022-08-24T17:43:55.010Z,1.63
2022-08-24T17:48:47.972Z,1.52
2022-08-24T17:53:39.913Z,0.82
2022-08-24T17:58:31.618Z,0.88
2022-08-24T18:03:23.315Z,0.50
2022-08-24T18:08:15.138Z,0.98
2022-08-24T18:13:09.614Z,1.13
2022-08-24T18:18:03.980Z,1.58
2022-08-24T18:22:56.217Z,1.08
2022-08-24T18:27:51.016Z,0.75
2022-08-24T18:32:42.681Z,1.17
2022-08-24T18:37:34.413Z,0.65
2022-08-24T18:42:27.380Z,1.38
2022-08-24T18:47:19.006Z,1.20
2022-08-24T18:52:14.565Z,0.90
2022-08-24T18:57:07.357Z,1.15
2022-08-24T19:02:19.437Z,0.85
2022-08-24T19:07:11.458Z,0.68
2022-08-24T19:12:04.399Z,0.73
2022-08-24T19:16:56.107Z,2.08
2022-08-24T19:21:47.990Z,2.15
2022-08-24T19:26:39.662Z,1.65
2022-08-24T19:31:33.634Z,1.15
2022-08-24T19:36:25.848Z,0.75
2022-08-24T19:41:18.925Z,1.58
2022-08-24T19:46:12.024Z,1.70
2022-08-24T19:51:09.791Z,2.80
2022-08-24T19:56:01.877Z,0.93
2022-08-24T20:01:03.922Z,2.00
2022-08-24T20:05:55.769Z,1.00
2022-08-24T20:10:48.173Z,2.10
2022-08-24T20:15:40.441Z,2.03
2022-08-24T20:20:32.637Z,2.45
2022-08-24T20:25:24.391Z,1.75
2022-08-24T20:30:17.905Z,2.45
2022-08-24T20:35:10.247Z,1.60
2022-08-24T20:40:03.191Z,2.55
2022-08-24T20:44:55.748Z,2.15
2022-08-24T20:49:48.367Z,3.70
2022-08-24T20:54:41.044Z,2.22
2022-08-24T20:59:34.529Z,3.05
2022-08-24T21:04:26.185Z,3.55
2022-08-24T21:09:20.570Z,1.85
2022-08-24T21:14:12.947Z,1.88
2022-08-24T21:19:05.055Z,2.53
2022-08-24T21:23:56.799Z,2.85
2022-08-24T21:28:49.004Z,2.83
2022-08-24T21:33:59.357Z,3.58
2022-08-24T21:38:54.725Z,2.60
2022-08-24T21:43:46.541Z,3.88
2022-08-24T21:48:39.860Z,4.25
2022-08-24T21:53:31.701Z,1.98
2022-08-24T21:58:24.466Z,2.13
2022-08-24T22:03:16.220Z,2.00
2022-08-24T22:08:08.403Z,2.72
2022-08-24T22:13:04.022Z,4.53
2022-08-24T22:17:56.249Z,1.70
2022-08-24T22:22:48.594Z,2.90
2022-08-24T22:27:45.813Z,4.43
2022-08-24T22:32:37.650Z,1.75
2022-08-24T22:37:29.701Z,4.05
2022-08-24T22:42:21.516Z,4.70
2022-08-24T22:47:15.040Z,4.00
2022-08-24T22:52:07.703Z,5.25
2022-08-24T22:56:59.544Z,6.75
2022-08-24T23:01:54.249Z,4.07
2022-08-24T23:06:46.727Z,5.32
2022-08-24T23:11:39.535Z,3.47
2022-08-24T23:16:33.298Z,3.55
2022-08-24T23:21:26.041Z,4.18
2022-08-24T23:26:20.574Z,4.60
2022-08-24T23:31:13.538Z,7.35
2022-08-24T23:36:11.039Z,5.80
2022-08-24T23:41:12.161Z,4.80
2022-08-24T23:46:04.335Z,9.13
2022-08-24T23:51:00.244Z,4.65
2022-08-24T23:55:53.263Z,6.10
